createdAt,value
2018-12-23T00:00:14.924Z,28.10
2018-12-23T00:02:41.796Z,31.02
2018-12-23T00:05:11.600Z,26.33
2018-12-23T00:07:38.993Z,26.37
2018-12-23T00:10:06.676Z,26.10
2018-12-23T00:12:33.655Z,24.70
2018-12-23T00:15:00.930Z,29.70
2018-12-23T00:17:28.206Z,23.12
2018-12-23T00:19:55.268Z,21.65
2018-12-23T00:22:22.338Z,22.48
2018-12-23T00:24:49.568Z,20.75
2018-12-23T00:27:16.692Z,22.32
2018-12-23T00:29:43.946Z,23.22
2018-12-23T00:32:10.916Z,22.85
2018-12-23T00:34:37.891Z,23.22
2018-12-23T00:37:05.383Z,22.48
2018-12-23T00:39:32.934Z,22.15
2018-12-23T00:41:59.998Z,24.18
2018-12-23T00:44:27.831Z,19.10
2018-12-23T00:46:54.912Z,20.05
2018-12-23T00:49:21.833Z,21.82
2018-12-23T00:51:48.795Z,21.27
2018-12-23T00:54:15.677Z,20.27
2018-12-23T00:56:42.776Z,22.42
2018-12-23T00:59:10.422Z,20.57
2018-12-23T01:01:37.686Z,20.15
2018-12-23T01:04:04.872Z,21.25
2018-12-23T01:06:31.828Z,20.85
2018-12-23T01:08:58.893Z,21.17
2018-12-23T01:11:26.926Z,22.37
2018-12-23T01:13:54.880Z,22.00
2018-12-23T01:16:21.846Z,20.30
2018-12-23T01:18:48.708Z,19.25
2018-12-23T01:21:15.792Z,20.35
2018-12-23T01:23:43.175Z,20.27
2018-12-23T01:26:10.235Z,20.72
2018-12-23T01:28:37.599Z,21.50
2018-12-23T01:31:04.565Z,19.95
2018-12-23T01:33:31.499Z,19.23
2018-12-23T01:35:58.719Z,19.00
2018-12-23T01:38:25.886Z,17.75
2018-12-23T01:40:53.068Z,18.30
2018-12-23T01:43:20.443Z,16.15
2018-12-23T01:45:47.503Z,16.15
2018-12-23T01:48:14.577Z,14.23
2018-12-23T01:50:41.324Z,15.30
2018-12-23T01:53:08.195Z,14.40
2018-12-23T01:55:35.780Z,13.13
2018-12-23T01:58:02.743Z,13.95
2018-12-23T02:00:29.604Z,11.88
2018-12-23T02:02:56.577Z,11.73
2018-12-23T02:05:23.329Z,14.38
2018-12-23T02:07:50.201Z,12.80
2018-12-23T02:10:17.163Z,12.63
2018-12-23T02:12:44.028Z,11.05
2018-12-23T02:15:11.003Z,12.25
2018-12-23T02:17:37.969Z,11.55
2018-12-23T02:20:05.042Z,13.13
2018-12-23T02:22:31.901Z,12.60
2018-12-23T02:24:58.762Z,12.13
2018-12-23T02:27:25.621Z,13.38
2018-12-23T02:29:52.485Z,13.93
2018-12-23T02:32:19.366Z,11.05
2018-12-23T02:34:46.319Z,14.30
2018-12-23T02:37:13.496Z,13.85
2018-12-23T02:39:40.370Z,15.10
2018-12-23T02:42:07.652Z,13.55
2018-12-23T02:44:34.606Z,12.98
2018-12-23T02:47:01.572Z,14.00
2018-12-23T02:49:28.431Z,14.90
2018-12-23T02:51:55.298Z,17.10
2018-12-23T02:54:22.056Z,14.63
2018-12-23T02:56:48.920Z,11.93
2018-12-23T02:59:15.891Z,11.00
2018-12-23T03:01:42.966Z,12.07
2018-12-23T03:04:09.831Z,12.75
2018-12-23T03:06:37.924Z,11.53
2018-12-23T03:09:04.779Z,11.55
2018-12-23T03:11:31.560Z,10.38
2018-12-23T03:13:59.034Z,8.85
2018-12-23T03:16:25.903Z,9.80
2018-12-23T03:18:52.752Z,8.05
2018-12-23T03:21:19.723Z,9.78
2018-12-23T03:23:46.707Z,9.35
2018-12-23T03:26:13.761Z,10.15
2018-12-23T03:28:41.763Z,10.30
2018-12-23T03:31:08.844Z,9.53
2018-12-23T03:33:35.787Z,8.95
2018-12-23T03:36:02.762Z,10.00
2018-12-23T03:38:29.629Z,9.78
2018-12-23T03:40:56.682Z,7.87
2018-12-23T03:43:23.548Z,9.50
2018-12-23T03:45:50.524Z,9.28
2018-12-23T03:48:17.485Z,9.05
2018-12-23T03:50:44.449Z,9.13
2018-12-23T03:53:11.313Z,10.40
2018-12-23T03:55:38.079Z,10.72
2018-12-23T03:58:05.051Z,10.80
2018-12-23T04:00:31.919Z,11.45
2018-12-23T04:02:58.883Z,11.25
2018-12-23T04:05:25.747Z,11.33
2018-12-23T04:07:52.708Z,11.55
2018-12-23T04:10:19.684Z,11.25
2018-12-23T04:12:46.759Z,10.45
2018-12-23T04:15:13.714Z,11.40
2018-12-23T04:17:40.581Z,12.10
2018-12-23T04:20:07.550Z,11.90
2018-12-23T04:22:34.405Z,11.20
2018-12-23T04:25:01.287Z,11.15
2018-12-23T04:27:28.150Z,11.03
2018-12-23T04:29:55.008Z,11.25
2018-12-23T04:32:21.972Z,11.43
2018-12-23T04:34:48.944Z,11.65
2018-12-23T04:37:15.910Z,13.22
2018-12-23T04:39:42.778Z,12.70
2018-12-23T04:42:10.966Z,11.93
2018-12-23T04:44:37.834Z,11.25
2018-12-23T04:47:04.604Z,13.18
2018-12-23T04:49:31.461Z,12.15
2018-12-23T04:51:58.222Z,12.47
2018-12-23T04:54:25.234Z,12.00
2018-12-23T04:56:52.150Z,10.38
2018-12-23T04:59:19.139Z,11.10
2018-12-23T05:01:46.186Z,10.63
2018-12-23T05:04:13.267Z,11.78
2018-12-23T05:06:43.469Z,11.48
2018-12-23T05:09:09.040Z,12.28
2018-12-23T05:11:36.003Z,12.30
2018-12-23T05:14:02.968Z,14.70
2018-12-23T05:16:29.745Z,12.03
2018-12-23T05:18:56.808Z,14.15
2018-12-23T05:21:23.782Z,11.80
2018-12-23T05:23:50.842Z,11.75
2018-12-23T05:26:17.702Z,12.15
2018-12-23T05:28:44.690Z,15.10
2018-12-23T05:31:11.739Z,11.83
2018-12-23T05:33:38.608Z,14.55
2018-12-23T05:36:05.572Z,15.35
2018-12-23T05:38:32.451Z,13.85
2018-12-23T05:40:59.614Z,12.65
2018-12-23T05:43:26.578Z,12.53
2018-12-23T05:45:53.555Z,14.05
2018-12-23T05:48:20.419Z,12.37
2018-12-23T05:50:47.273Z,12.05
2018-12-23T05:53:14.135Z,12.30
2018-12-23T05:55:41.004Z,12.43
2018-12-23T05:58:07.864Z,13.18
2018-12-23T06:00:34.734Z,12.60
2018-12-23T06:03:01.703Z,14.30
2018-12-23T06:05:28.566Z,13.43
2018-12-23T06:07:55.541Z,13.43
2018-12-23T06:10:22.302Z,13.90
2018-12-23T06:12:49.377Z,15.15
2018-12-23T06:15:17.252Z,14.50
2018-12-23T06:17:44.010Z,15.10
2018-12-23T06:20:10.887Z,14.47
2018-12-23T06:22:37.749Z,13.62
2018-12-23T06:25:04.619Z,14.38
2018-12-23T06:27:32.300Z,14.47
2018-12-23T06:29:59.260Z,13.62
2018-12-23T06:32:26.227Z,14.20
2018-12-23T06:34:53.302Z,13.98
2018-12-23T06:37:20.988Z,14.35
2018-12-23T06:39:47.842Z,14.40
2018-12-23T06:42:15.848Z,13.78
2018-12-23T06:44:43.216Z,14.18
2018-12-23T06:47:10.273Z,12.45
2018-12-23T06:49:37.148Z,11.78
2018-12-23T06:52:04.112Z,12.15
2018-12-23T06:54:31.083Z,14.03
2018-12-23T06:56:57.940Z,12.82
2018-12-23T06:59:24.905Z,14.35
2018-12-23T07:01:51.777Z,14.20
2018-12-23T07:04:18.848Z,12.98
2018-12-23T07:06:45.702Z,15.00
2018-12-23T07:09:12.569Z,14.18
2018-12-23T07:11:39.946Z,13.28
2018-12-23T07:14:06.818Z,12.40
2018-12-23T07:16:33.680Z,13.00
2018-12-23T07:19:00.544Z,12.37
2018-12-23T07:21:27.611Z,12.65
2018-12-23T07:23:54.686Z,13.83
2018-12-23T07:26:21.659Z,12.60
2018-12-23T07:28:48.724Z,12.60
2018-12-23T07:31:15.469Z,11.95
2018-12-23T07:33:42.343Z,13.35
2018-12-23T07:36:09.324Z,13.15
2018-12-23T07:38:36.284Z,13.10
2018-12-23T07:41:03.154Z,14.47
2018-12-23T07:43:30.110Z,12.90
2018-12-23T07:45:57.102Z,14.00
2018-12-23T07:48:25.795Z,11.38
2018-12-23T07:50:53.810Z,11.35
2018-12-23T07:53:21.008Z,10.65
2018-12-23T07:55:47.972Z,12.90
2018-12-23T07:58:14.830Z,11.45
2018-12-23T08:00:41.845Z,10.65
2018-12-23T08:03:08.825Z,11.45
2018-12-23T08:05:35.999Z,9.58
2018-12-23T08:08:03.174Z,11.83
2018-12-23T08:10:30.018Z,12.90
2018-12-23T08:12:56.961Z,11.15
2018-12-23T08:15:23.820Z,13.32
2018-12-23T08:17:51.580Z,11.20
2018-12-23T08:20:18.522Z,12.13
2018-12-23T08:22:45.259Z,13.05
2018-12-23T08:25:12.129Z,11.43
2018-12-23T08:27:38.992Z,13.20
2018-12-23T08:30:06.062Z,13.95
2018-12-23T08:32:33.011Z,15.23
2018-12-23T08:34:59.961Z,13.78
2018-12-23T08:37:26.941Z,15.13
2018-12-23T08:39:53.895Z,14.87
2018-12-23T08:42:20.800Z,15.40
2018-12-23T08:44:47.662Z,16.05
2018-12-23T08:47:14.536Z,14.50
2018-12-23T08:49:41.498Z,16.35
2018-12-23T08:52:08.539Z,15.58
2018-12-23T08:54:36.262Z,15.32
2018-12-23T08:57:03.194Z,14.07
2018-12-23T08:59:33.093Z,12.80
2018-12-23T09:02:00.155Z,10.20
2018-12-23T09:04:27.593Z,11.93
2018-12-23T09:06:55.493Z,11.93
2018-12-23T09:09:23.192Z,12.45
2018-12-23T09:11:50.932Z,11.83
2018-12-23T09:14:18.433Z,11.35
2018-12-23T09:16:45.734Z,11.35
2018-12-23T09:19:14.533Z,12.33
2018-12-23T09:21:42.113Z,11.63
2018-12-23T09:24:11.619Z,11.80
2018-12-23T09:26:40.721Z,11.60
2018-12-23T09:31:40.702Z,10.98
2018-12-23T09:34:08.377Z,10.85
2018-12-23T09:36:36.172Z,11.73
2018-12-23T09:39:03.457Z,11.75
2018-12-23T09:41:36.644Z,10.98
2018-12-23T09:44:07.802Z,11.57
2018-12-23T09:46:35.617Z,10.60
2018-12-23T09:49:03.288Z,12.23
2018-12-23T09:51:31.760Z,12.65
2018-12-23T09:53:59.182Z,12.47
2018-12-23T09:56:27.448Z,16.07
2018-12-23T09:58:56.307Z,10.68
2018-12-23T10:01:23.648Z,13.80
2018-12-23T10:03:51.247Z,16.77
2018-12-23T10:06:23.068Z,16.45
2018-12-23T10:08:50.148Z,14.35
2018-12-23T10:11:17.808Z,16.62
2018-12-23T10:13:45.330Z,15.53
2018-12-23T10:16:12.951Z,14.75
2018-12-23T10:18:39.999Z,12.18
2018-12-23T10:21:07.698Z,11.40
2018-12-23T10:23:34.897Z,11.80
2018-12-23T10:26:04.534Z,11.73
2018-12-23T10:28:32.981Z,11.83
2018-12-23T10:33:33.436Z,17.27
2018-12-23T10:36:01.321Z,16.32
2018-12-23T10:38:29.416Z,14.83
2018-12-23T14:51:17.673Z,17.67
